sensor_id;sensor_type;location;lat;lon;timestamp;P1;durP1;ratioP1;P2;durP2;ratioP2
24086;SDS011;22893;50.572;7.234;2023-04-01T00:00:58;0.80;;;0.30;;
24086;SDS011;22893;50.572;7.234;2023-04-01T00:03:27;1.10;;;0.28;;
24086;SDS011;22893;50.572;7.234;2023-04-01T00:05:55;3.33;;;0.50;;
24086;SDS011;22893;50.572;7.234;2023-04-01T00:08:24;1.00;;;0.40;;
24086;SDS011;22893;50.572;7.234;2023-04-01T00:10:53;0.37;;;0.20;;
24086;SDS011;22893;50.572;7.234;2023-04-01T00:13:22;0.78;;;0.30;;
24086;SDS011;22893;50.572;7.234;2023-04-01T00:15:52;2.72;;;0.40;;
24086;SDS011;22893;50.572;7.234;2023-04-01T00:18:21;3.87;;;0.68;;
24086;SDS011;22893;50.572;7.234;2023-04-01T00:20:49;3.05;;;0.50;;
24086;SDS011;22893;50.572;7.234;2023-04-01T00:23:19;2.40;;;0.68;;
24086;SDS011;22893;50.572;7.234;2023-04-01T00:25:49;1.65;;;0.55;;
24086;SDS011;22893;50.572;7.234;2023-04-01T00:28:18;1.75;;;0.30;;
24086;SDS011;22893;50.572;7.234;2023-04-01T00:30:47;1.37;;;0.30;;
24086;SDS011;22893;50.572;7.234;2023-04-01T00:33:16;1.72;;;0.23;;
24086;SDS011;22893;50.572;7.234;2023-04-01T00:35:44;1.57;;;0.50;;
24086;SDS011;22893;50.572;7.234;2023-04-01T00:38:12;1.67;;;0.20;;
24086;SDS011;22893;50.572;7.234;2023-04-01T00:40:41;1.12;;;0.17;;
24086;SDS011;22893;50.572;7.234;2023-04-01T00:43:19;0.47;;;0.20;;
24086;SDS011;22893;50.572;7.234;2023-04-01T00:45:48;0.62;;;0.20;;
24086;SDS011;22893;50.572;7.234;2023-04-01T00:48:17;1.02;;;0.30;;
24086;SDS011;22893;50.572;7.234;2023-04-01T00:50:58;1.10;;;0.20;;
24086;SDS011;22893;50.572;7.234;2023-04-01T00:53:30;0.65;;;0.50;;
24086;SDS011;22893;50.572;7.234;2023-04-01T00:56:03;1.35;;;0.40;;
24086;SDS011;22893;50.572;7.234;2023-04-01T00:58:32;0.95;;;0.15;;
24086;SDS011;22893;50.572;7.234;2023-04-01T01:01:02;0.20;;;0.20;;
24086;SDS011;22893;50.572;7.234;2023-04-01T01:03:30;4.78;;;0.40;;
24086;SDS011;22893;50.572;7.234;2023-04-01T01:06:04;0.62;;;0.30;;
24086;SDS011;22893;50.572;7.234;2023-04-01T01:09:03;0.98;;;0.20;;
24086;SDS011;22893;50.572;7.234;2023-04-01T01:11:46;0.65;;;0.15;;
24086;SDS011;22893;50.572;7.234;2023-04-01T01:14:33;0.20;;;0.15;;
24086;SDS011;22893;50.572;7.234;2023-04-01T01:17:45;0.70;;;0.45;;
24086;SDS011;22893;50.572;7.234;2023-04-01T01:25:16;0.37;;;0.20;;
24086;SDS011;22893;50.572;7.234;2023-04-01T01:33:51;0.72;;;0.20;;
24086;SDS011;22893;50.572;7.234;2023-04-01T01:36:22;1.55;;;0.30;;
24086;SDS011;22893;50.572;7.234;2023-04-01T01:38:52;0.28;;;0.28;;
24086;SDS011;22893;50.572;7.234;2023-04-01T01:41:21;2.85;;;0.20;;
24086;SDS011;22893;50.572;7.234;2023-04-01T01:43:52;0.80;;;0.30;;
24086;SDS011;22893;50.572;7.234;2023-04-01T01:46:23;1.30;;;0.33;;
24086;SDS011;22893;50.572;7.234;2023-04-01T01:48:54;2.08;;;0.13;;
24086;SDS011;22893;50.572;7.234;2023-04-01T01:51:23;0.13;;;0.13;;
24086;SDS011;22893;50.572;7.234;2023-04-01T01:53:53;1.65;;;0.13;;
24086;SDS011;22893;50.572;7.234;2023-04-01T01:56:22;0.65;;;0.30;;
24086;SDS011;22893;50.572;7.234;2023-04-01T01:58:53;0.23;;;0.20;;
24086;SDS011;22893;50.572;7.234;2023-04-01T02:01:26;1.55;;;0.47;;
24086;SDS011;22893;50.572;7.234;2023-04-01T02:03:56;1.98;;;0.23;;
24086;SDS011;22893;50.572;7.234;2023-04-01T02:06:27;0.55;;;0.13;;
24086;SDS011;22893;50.572;7.234;2023-04-01T02:09:04;0.28;;;0.15;;
24086;SDS011;22893;50.572;7.234;2023-04-01T02:11:56;0.82;;;0.10;;
24086;SDS011;22893;50.572;7.234;2023-04-01T02:16:54;0.45;;;0.20;;
24086;SDS011;22893;50.572;7.234;2023-04-01T02:19:27;1.27;;;0.20;;
24086;SDS011;22893;50.572;7.234;2023-04-01T02:22:00;0.28;;;0.20;;
24086;SDS011;22893;50.572;7.234;2023-04-01T02:24:30;0.15;;;0.10;;
24086;SDS011;22893;50.572;7.234;2023-04-01T02:27:02;0.70;;;0.10;;
24086;SDS011;22893;50.572;7.234;2023-04-01T02:29:31;0.35;;;0.10;;
24086;SDS011;22893;50.572;7.234;2023-04-01T02:31:59;0.30;;;0.30;;
24086;SDS011;22893;50.572;7.234;2023-04-01T02:34:29;0.40;;;0.10;;
24086;SDS011;22893;50.572;7.234;2023-04-01T02:36:57;2.92;;;0.20;;
24086;SDS011;22893;50.572;7.234;2023-04-01T02:39:25;0.10;;;0.10;;
24086;SDS011;22893;50.572;7.234;2023-04-01T02:41:53;0.68;;;0.13;;
24086;SDS011;22893;50.572;7.234;2023-04-01T02:44:21;0.82;;;0.13;;
24086;SDS011;22893;50.572;7.234;2023-04-01T02:46:49;0.10;;;0.10;;
24086;SDS011;22893;50.572;7.234;2023-04-01T02:49:16;0.55;;;0.20;;
24086;SDS011;22893;50.572;7.234;2023-04-01T02:51:44;0.17;;;0.10;;
24086;SDS011;22893;50.572;7.234;2023-04-01T02:54:11;0.10;;;0.10;;
24086;SDS011;22893;50.572;7.234;2023-04-01T02:56:39;0.37;;;0.10;;
24086;SDS011;22893;50.572;7.234;2023-04-01T02:59:07;0.75;;;0.10;;
24086;SDS011;22893;50.572;7.234;2023-04-01T03:01:35;2.10;;;0.17;;
24086;SDS011;22893;50.572;7.234;2023-04-01T03:04:02;0.23;;;0.20;;
24086;SDS011;22893;50.572;7.234;2023-04-01T03:06:31;0.10;;;0.10;;
24086;SDS011;22893;50.572;7.234;2023-04-01T03:08:59;0.40;;;0.17;;
24086;SDS011;22893;50.572;7.234;2023-04-01T03:11:26;0.53;;;0.10;;
24086;SDS011;22893;50.572;7.234;2023-04-01T03:13:55;24.47;;;1.55;;
24086;SDS011;22893;50.572;7.234;2023-04-01T03:16:22;19.73;;;1.35;;
24086;SDS011;22893;50.572;7.234;2023-04-01T03:18:50;4.00;;;0.60;;
24086;SDS011;22893;50.572;7.234;2023-04-01T03:21:20;1.98;;;0.13;;
24086;SDS011;22893;50.572;7.234;2023-04-01T03:23:49;1.20;;;0.30;;
24086;SDS011;22893;50.572;7.234;2023-04-01T03:26:18;3.40;;;1.25;;
24086;SDS011;22893;50.572;7.234;2023-04-01T03:28:47;0.68;;;0.20;;
24086;SDS011;22893;50.572;7.234;2023-04-01T03:31:15;0.10;;;0.10;;
24086;SDS011;22893;50.572;7.234;2023-04-01T03:33:43;0.88;;;0.10;;
24086;SDS011;22893;50.572;7.234;2023-04-01T03:36:11;0.05;;;0.00;;
24086;SDS011;22893;50.572;7.234;2023-04-01T03:38:42;0.28;;;0.15;;
24086;SDS011;22893;50.572;7.234;2023-04-01T03:41:13;1.75;;;0.20;;
24086;SDS011;22893;50.572;7.234;2023-04-01T03:43:42;1.50;;;0.30;;
24086;SDS011;22893;50.572;7.234;2023-04-01T03:46:10;2.22;;;0.40;;
24086;SDS011;22893;50.572;7.234;2023-04-01T03:48:38;0.20;;;0.20;;
24086;SDS011;22893;50.572;7.234;2023-04-01T03:51:08;3.47;;;0.30;;
24086;SDS011;22893;50.572;7.234;2023-04-01T03:53:36;0.20;;;0.10;;
24086;SDS011;22893;50.572;7.234;2023-04-01T03:56:04;0.20;;;0.20;;
24086;SDS011;22893;50.572;7.234;2023-04-01T03:58:32;0.45;;;0.40;;
24086;SDS011;22893;50.572;7.234;2023-04-01T04:01:00;1.27;;;0.13;;
24086;SDS011;22893;50.572;7.234;2023-04-01T04:03:28;0.10;;;0.10;;
24086;SDS011;22893;50.572;7.234;2023-04-01T04:05:55;0.30;;;0.10;;
24086;SDS011;22893;50.572;7.234;2023-04-01T04:08:23;0.57;;;0.30;;
24086;SDS011;22893;50.572;7.234;2023-04-01T04:10:56;0.23;;;0.10;;
24086;SDS011;22893;50.572;7.234;2023-04-01T04:13:23;1.25;;;0.17;;
24086;SDS011;22893;50.572;7.234;2023-04-01T04:15:51;0.93;;;0.20;;
24086;SDS011;22893;50.572;7.234;2023-04-01T04:18:19;0.10;;;0.10;;
24086;SDS011;22893;50.572;7.234;2023-04-01T04:20:46;1.50;;;0.10;;
24086;SDS011;22893;50.572;7.234;2023-04-01T04:23:15;0.35;;;0.25;;
24086;SDS011;22893;50.572;7.234;2023-04-01T04:26:17;0.80;;;0.28;;
24086;SDS011;22893;50.572;7.234;2023-04-01T04:28:22;0.10;;;0.10;;
24086;SDS011;22893;50.572;7.234;2023-04-01T04:30:50;0.28;;;0.28;;
24086;SDS011;22893;50.572;7.234;2023-04-01T04:33:18;2.17;;;0.10;;
24086;SDS011;22893;50.572;7.234;2023-04-01T04:35:46;1.57;;;0.30;;
24086;SDS011;22893;50.572;7.234;2023-04-01T04:38:13;0.17;;;0.10;;
24086;SDS011;22893;50.572;7.234;2023-04-01T04:40:41;0.10;;;0.10;;
24086;SDS011;22893;50.572;7.234;2023-04-01T04:43:11;0.75;;;0.37;;
24086;SDS011;22893;50.572;7.234;2023-04-01T04:45:39;0.10;;;0.10;;
24086;SDS011;22893;50.572;7.234;2023-04-01T04:48:08;0.28;;;0.25;;
24086;SDS011;22893;50.572;7.234;2023-04-01T04:50:39;0.10;;;0.10;;
24086;SDS011;22893;50.572;7.234;2023-04-01T04:53:12;0.00;;;0.00;;
24086;SDS011;22893;50.572;7.234;2023-04-01T04:55:37;0.68;;;0.20;;
24086;SDS011;22893;50.572;7.234;2023-04-01T04:58:06;0.10;;;0.10;;
24086;SDS011;22893;50.572;7.234;2023-04-01T05:00:33;0.30;;;0.30;;
24086;SDS011;22893;50.572;7.234;2023-04-01T05:03:01;0.57;;;0.10;;
24086;SDS011;22893;50.572;7.234;2023-04-01T05:05:29;0.10;;;0.10;;
24086;SDS011;22893;50.572;7.234;2023-04-01T05:07:56;0.05;;;0.00;;
24086;SDS011;22893;50.572;7.234;2023-04-01T05:10:24;0.10;;;0.10;;
24086;SDS011;22893;50.572;7.234;2023-04-01T05:12:52;0.10;;;0.10;;
24086;SDS011;22893;50.572;7.234;2023-04-01T05:15:19;0.25;;;0.20;;
24086;SDS011;22893;50.572;7.234;2023-04-01T05:17:47;0.10;;;0.10;;
24086;SDS011;22893;50.572;7.234;2023-04-01T05:20:15;0.10;;;0.10;;
24086;SDS011;22893;50.572;7.234;2023-04-01T05:22:43;0.20;;;0.20;;
24086;SDS011;22893;50.572;7.234;2023-04-01T05:25:11;1.12;;;0.20;;
24086;SDS011;22893;50.572;7.234;2023-04-01T05:27:39;2.65;;;0.75;;
24086;SDS011;22893;50.572;7.234;2023-04-01T05:30:06;1.90;;;0.30;;
24086;SDS011;22893;50.572;7.234;2023-04-01T05:32:34;1.75;;;0.28;;
24086;SDS011;22893;50.572;7.234;2023-04-01T05:35:03;0.45;;;0.20;;
24086;SDS011;22893;50.572;7.234;2023-04-01T05:37:32;0.35;;;0.35;;
24086;SDS011;22893;50.572;7.234;2023-04-01T05:40:01;0.70;;;0.10;;
24086;SDS011;22893;50.572;7.234;2023-04-01T05:42:29;0.45;;;0.33;;
24086;SDS011;22893;50.572;7.234;2023-04-01T05:44:56;0.95;;;0.20;;
24086;SDS011;22893;50.572;7.234;2023-04-01T05:47:24;0.20;;;0.20;;
24086;SDS011;22893;50.572;7.234;2023-04-01T05:49:52;0.13;;;0.10;;
24086;SDS011;22893;50.572;7.234;2023-04-01T05:52:21;0.40;;;0.10;;
24086;SDS011;22893;50.572;7.234;2023-04-01T05:54:48;0.10;;;0.10;;
24086;SDS011;22893;50.572;7.234;2023-04-01T05:57:16;0.70;;;0.13;;
24086;SDS011;22893;50.572;7.234;2023-04-01T05:59:44;0.15;;;0.10;;
24086;SDS011;22893;50.572;7.234;2023-04-01T06:02:17;0.30;;;0.15;;
24086;SDS011;22893;50.572;7.234;2023-04-01T06:04:42;0.20;;;0.10;;
24086;SDS011;22893;50.572;7.234;2023-04-01T06:07:16;0.98;;;0.20;;
24086;SDS011;22893;50.572;7.234;2023-04-01T06:09:44;0.50;;;0.10;;
24086;SDS011;22893;50.572;7.234;2023-04-01T06:12:35;0.28;;;0.10;;
24086;SDS011;22893;50.572;7.234;2023-04-01T06:26:22;0.13;;;0.13;;
24086;SDS011;22893;50.572;7.234;2023-04-01T06:31:36;0.35;;;0.20;;
24086;SDS011;22893;50.572;7.234;2023-04-01T06:34:26;1.42;;;0.20;;
24086;SDS011;22893;50.572;7.234;2023-04-01T06:37:01;1.20;;;0.60;;
24086;SDS011;22893;50.572;7.234;2023-04-01T06:39:31;0.47;;;0.20;;
24086;SDS011;22893;50.572;7.234;2023-04-01T06:47:36;0.37;;;0.10;;
24086;SDS011;22893;50.572;7.234;2023-04-01T06:52:55;1.98;;;0.35;;
24086;SDS011;22893;50.572;7.234;2023-04-01T06:55:42;1.32;;;0.30;;
24086;SDS011;22893;50.572;7.234;2023-04-01T07:01:24;0.20;;;0.20;;
24086;SDS011;22893;50.572;7.234;2023-04-01T07:03:57;1.22;;;0.37;;
24086;SDS011;22893;50.572;7.234;2023-04-01T07:06:36;1.82;;;0.25;;
24086;SDS011;22893;50.572;7.234;2023-04-01T07:09:10;0.10;;;0.10;;
24086;SDS011;22893;50.572;7.234;2023-04-01T07:11:39;0.82;;;0.20;;
24086;SDS011;22893;50.572;7.234;2023-04-01T07:14:19;0.13;;;0.13;;
24086;SDS011;22893;50.572;7.234;2023-04-01T07:16:58;0.10;;;0.10;;
24086;SDS011;22893;50.572;7.234;2023-04-01T07:19:36;0.20;;;0.20;;
24086;SDS011;22893;50.572;7.234;2023-04-01T07:22:04;0.15;;;0.15;;
24086;SDS011;22893;50.572;7.234;2023-04-01T07:24:34;0.57;;;0.10;;
24086;SDS011;22893;50.572;7.234;2023-04-01T07:27:05;2.83;;;0.28;;
24086;SDS011;22893;50.572;7.234;2023-04-01T07:29:38;0.55;;;0.55;;
24086;SDS011;22893;50.572;7.234;2023-04-01T07:32:22;0.65;;;0.10;;
24086;SDS011;22893;50.572;7.234;2023-04-01T07:37:52;0.60;;;0.30;;
24086;SDS011;22893;50.572;7.234;2023-04-01T07:43:16;3.42;;;0.40;;
24086;SDS011;22893;50.572;7.234;2023-04-01T07:51:10;0.17;;;0.10;;
24086;SDS011;22893;50.572;7.234;2023-04-01T07:54:04;0.17;;;0.17;;
24086;SDS011;22893;50.572;7.234;2023-04-01T07:56:50;0.10;;;0.10;;
24086;SDS011;22893;50.572;7.234;2023-04-01T08:02:30;0.40;;;0.35;;
24086;SDS011;22893;50.572;7.234;2023-04-01T08:05:14;1.17;;;0.95;;
24086;SDS011;22893;50.572;7.234;2023-04-01T08:13:12;0.33;;;0.30;;
24086;SDS011;22893;50.572;7.234;2023-04-01T08:18:31;1.37;;;0.47;;
24086;SDS011;22893;50.572;7.234;2023-04-01T08:21:12;0.55;;;0.30;;
24086;SDS011;22893;50.572;7.234;2023-04-01T08:23:51;0.45;;;0.30;;
24086;SDS011;22893;50.572;7.234;2023-04-01T08:26:30;1.55;;;0.78;;
24086;SDS011;22893;50.572;7.234;2023-04-01T08:34:20;0.10;;;0.10;;
24086;SDS011;22893;50.572;7.234;2023-04-01T08:36:58;0.70;;;0.35;;
24086;SDS011;22893;50.572;7.234;2023-04-01T08:39:30;2.25;;;0.30;;
24086;SDS011;22893;50.572;7.234;2023-04-01T08:50:25;2.25;;;0.80;;
24086;SDS011;22893;50.572;7.234;2023-04-01T08:55:51;4.78;;;0.40;;
24086;SDS011;22893;50.572;7.234;2023-04-01T08:58:35;2.62;;;0.30;;
24086;SDS011;22893;50.572;7.234;2023-04-01T09:01:14;4.28;;;0.37;;
24086;SDS011;22893;50.572;7.234;2023-04-01T09:04:14;2.35;;;0.30;;
24086;SDS011;22893;50.572;7.234;2023-04-01T09:06:47;3.33;;;0.25;;
24086;SDS011;22893;50.572;7.234;2023-04-01T09:15:12;0.78;;;0.50;;
24086;SDS011;22893;50.572;7.234;2023-04-01T09:17:51;0.47;;;0.30;;
24086;SDS011;22893;50.572;7.234;2023-04-01T09:26:29;2.85;;;0.40;;
24086;SDS011;22893;50.572;7.234;2023-04-01T09:32:16;0.20;;;0.20;;
24086;SDS011;22893;50.572;7.234;2023-04-01T09:38:05;3.83;;;1.60;;
24086;SDS011;22893;50.572;7.234;2023-04-01T09:51:57;0.28;;;0.20;;
24086;SDS011;22893;50.572;7.234;2023-04-01T09:54:24;0.55;;;0.23;;
24086;SDS011;22893;50.572;7.234;2023-04-01T10:06:08;0.30;;;0.20;;
24086;SDS011;22893;50.572;7.234;2023-04-01T10:09:16;1.95;;;0.55;;
24086;SDS011;22893;50.572;7.234;2023-04-01T10:17:28;0.20;;;0.20;;
24086;SDS011;22893;50.572;7.234;2023-04-01T10:23:18;1.57;;;0.30;;
24086;SDS011;22893;50.572;7.234;2023-04-01T10:28:49;0.85;;;0.20;;
24086;SDS011;22893;50.572;7.234;2023-04-01T10:31:35;2.10;;;0.50;;
24086;SDS011;22893;50.572;7.234;2023-04-01T10:36:57;2.95;;;0.33;;
24086;SDS011;22893;50.572;7.234;2023-04-01T10:48:00;0.93;;;0.30;;
24086;SDS011;22893;50.572;7.234;2023-04-01T10:58:33;0.98;;;0.30;;
24086;SDS011;22893;50.572;7.234;2023-04-01T11:10:06;0.98;;;0.35;;
24086;SDS011;22893;50.572;7.234;2023-04-01T11:35:24;0.80;;;0.50;;
24086;SDS011;22893;50.572;7.234;2023-04-01T11:43:22;1.15;;;0.30;;
24086;SDS011;22893;50.572;7.234;2023-04-01T11:45:55;0.57;;;0.20;;
24086;SDS011;22893;50.572;7.234;2023-04-01T11:51:08;3.42;;;0.40;;
24086;SDS011;22893;50.572;7.234;2023-04-01T12:05:29;3.12;;;0.50;;
24086;SDS011;22893;50.572;7.234;2023-04-01T12:08:10;0.98;;;0.40;;
24086;SDS011;22893;50.572;7.234;2023-04-01T12:16:15;1.62;;;0.50;;
24086;SDS011;22893;50.572;7.234;2023-04-01T12:19:13;0.30;;;0.30;;
24086;SDS011;22893;50.572;7.234;2023-04-01T12:21:58;0.42;;;0.28;;
24086;SDS011;22893;50.572;7.234;2023-04-01T12:24:36;8.55;;;0.70;;
24086;SDS011;22893;50.572;7.234;2023-04-01T12:33:00;0.60;;;0.40;;
24086;SDS011;22893;50.572;7.234;2023-04-01T12:46:28;0.55;;;0.30;;
24086;SDS011;22893;50.572;7.234;2023-04-01T12:52:12;2.17;;;0.85;;
24086;SDS011;22893;50.572;7.234;2023-04-01T12:57:48;0.62;;;0.25;;
24086;SDS011;22893;50.572;7.234;2023-04-01T13:17:02;1.17;;;0.30;;
24086;SDS011;22893;50.572;7.234;2023-04-01T13:25:22;0.45;;;0.30;;
24086;SDS011;22893;50.572;7.234;2023-04-01T13:28:28;0.93;;;0.30;;
24086;SDS011;22893;50.572;7.234;2023-04-01T13:30:37;1.60;;;0.65;;
24086;SDS011;22893;50.572;7.234;2023-04-01T13:33:33;2.27;;;0.33;;
24086;SDS011;22893;50.572;7.234;2023-04-01T13:35:44;2.05;;;0.47;;
24086;SDS011;22893;50.572;7.234;2023-04-01T13:41:05;1.00;;;0.30;;
24086;SDS011;22893;50.572;7.234;2023-04-01T13:43:45;0.50;;;0.20;;
24086;SDS011;22893;50.572;7.234;2023-04-01T13:46:22;1.22;;;0.28;;
24086;SDS011;22893;50.572;7.234;2023-04-01T13:51:40;2.30;;;0.85;;
24086;SDS011;22893;50.572;7.234;2023-04-01T13:54:35;0.40;;;0.33;;
24086;SDS011;22893;50.572;7.234;2023-04-01T14:17:21;1.95;;;0.82;;
24086;SDS011;22893;50.572;7.234;2023-04-01T14:23:02;1.47;;;0.28;;
24086;SDS011;22893;50.572;7.234;2023-04-01T14:31:03;0.40;;;0.37;;
24086;SDS011;22893;50.572;7.234;2023-04-01T14:42:17;0.62;;;0.20;;
24086;SDS011;22893;50.572;7.234;2023-04-01T14:47:43;0.20;;;0.20;;
24086;SDS011;22893;50.572;7.234;2023-04-01T14:50:25;0.35;;;0.30;;
24086;SDS011;22893;50.572;7.234;2023-04-01T14:58:20;1.15;;;0.40;;
24086;SDS011;22893;50.572;7.234;2023-04-01T15:01:12;0.45;;;0.20;;
24086;SDS011;22893;50.572;7.234;2023-04-01T15:03:36;0.20;;;0.20;;
24086;SDS011;22893;50.572;7.234;2023-04-01T15:19:29;2.30;;;0.50;;
24086;SDS011;22893;50.572;7.234;2023-04-01T15:24:43;2.50;;;0.40;;
24086;SDS011;22893;50.572;7.234;2023-04-01T15:32:28;1.85;;;0.23;;
24086;SDS011;22893;50.572;7.234;2023-04-01T15:35:19;1.75;;;0.57;;
24086;SDS011;22893;50.572;7.234;2023-04-01T15:38:05;0.93;;;0.20;;
24086;SDS011;22893;50.572;7.234;2023-04-01T15:40:47;0.80;;;0.65;;
24086;SDS011;22893;50.572;7.234;2023-04-01T15:48:55;2.30;;;0.33;;
24086;SDS011;22893;50.572;7.234;2023-04-01T15:51:47;2.72;;;0.53;;
24086;SDS011;22893;50.572;7.234;2023-04-01T16:05:59;0.55;;;0.30;;
24086;SDS011;22893;50.572;7.234;2023-04-01T16:22:01;0.40;;;0.20;;
24086;SDS011;22893;50.572;7.234;2023-04-01T16:24:31;5.58;;;0.62;;
24086;SDS011;22893;50.572;7.234;2023-04-01T16:32:31;0.82;;;0.20;;
24086;SDS011;22893;50.572;7.234;2023-04-01T16:35:14;1.10;;;0.30;;
24086;SDS011;22893;50.572;7.234;2023-04-01T16:37:54;0.98;;;0.20;;
24086;SDS011;22893;50.572;7.234;2023-04-01T16:40:50;0.62;;;0.20;;
24086;SDS011;22893;50.572;7.234;2023-04-01T16:57:26;5.53;;;0.50;;
24086;SDS011;22893;50.572;7.234;2023-04-01T17:05:52;3.12;;;0.25;;
24086;SDS011;22893;50.572;7.234;2023-04-01T17:13:52;0.40;;;0.20;;
24086;SDS011;22893;50.572;7.234;2023-04-01T17:16:35;1.02;;;0.30;;
24086;SDS011;22893;50.572;7.234;2023-04-01T17:19:14;0.28;;;0.28;;
24086;SDS011;22893;50.572;7.234;2023-04-01T17:21:56;1.98;;;0.30;;
24086;SDS011;22893;50.572;7.234;2023-04-01T17:27:29;0.78;;;0.40;;
24086;SDS011;22893;50.572;7.234;2023-04-01T17:35:49;1.77;;;0.40;;
24086;SDS011;22893;50.572;7.234;2023-04-01T17:44:12;2.77;;;0.78;;
24086;SDS011;22893;50.572;7.234;2023-04-01T17:47:03;2.77;;;1.07;;
24086;SDS011;22893;50.572;7.234;2023-04-01T17:58:04;2.55;;;0.50;;
24086;SDS011;22893;50.572;7.234;2023-04-01T18:03:45;2.37;;;0.45;;
24086;SDS011;22893;50.572;7.234;2023-04-01T18:06:45;1.07;;;0.50;;
24086;SDS011;22893;50.572;7.234;2023-04-01T18:12:11;4.28;;;0.60;;
24086;SDS011;22893;50.572;7.234;2023-04-01T18:14:43;4.45;;;0.50;;
24086;SDS011;22893;50.572;7.234;2023-04-01T18:25:48;4.47;;;0.75;;
24086;SDS011;22893;50.572;7.234;2023-04-01T18:28:22;2.30;;;1.10;;
24086;SDS011;22893;50.572;7.234;2023-04-01T18:31:04;1.15;;;0.50;;
24086;SDS011;22893;50.572;7.234;2023-04-01T18:39:10;2.80;;;1.30;;
24086;SDS011;22893;50.572;7.234;2023-04-01T18:41:54;3.27;;;0.70;;
24086;SDS011;22893;50.572;7.234;2023-04-01T18:44:38;0.88;;;0.53;;
24086;SDS011;22893;50.572;7.234;2023-04-01T18:47:21;4.25;;;1.15;;
24086;SDS011;22893;50.572;7.234;2023-04-01T18:50:11;0.78;;;0.50;;
24086;SDS011;22893;50.572;7.234;2023-04-01T18:52:43;3.35;;;0.93;;
24086;SDS011;22893;50.572;7.234;2023-04-01T18:58:06;3.72;;;1.40;;
24086;SDS011;22893;50.572;7.234;2023-04-01T19:00:41;9.23;;;1.25;;
24086;SDS011;22893;50.572;7.234;2023-04-01T19:03:12;2.98;;;0.80;;
24086;SDS011;22893;50.572;7.234;2023-04-01T19:05:44;3.17;;;1.02;;
24086;SDS011;22893;50.572;7.234;2023-04-01T19:08:18;2.00;;;0.70;;
24086;SDS011;22893;50.572;7.234;2023-04-01T19:16:21;2.12;;;1.27;;
24086;SDS011;22893;50.572;7.234;2023-04-01T19:19:46;1.57;;;0.78;;
24086;SDS011;22893;50.572;7.234;2023-04-01T19:21:58;1.42;;;0.70;;
24086;SDS011;22893;50.572;7.234;2023-04-01T19:27:28;2.25;;;0.62;;
24086;SDS011;22893;50.572;7.234;2023-04-01T19:30:16;2.02;;;0.68;;
24086;SDS011;22893;50.572;7.234;2023-04-01T19:32:49;0.90;;;0.55;;
24086;SDS011;22893;50.572;7.234;2023-04-01T19:35:43;4.55;;;0.60;;
24086;SDS011;22893;50.572;7.234;2023-04-01T19:40:53;4.40;;;1.10;;
24086;SDS011;22893;50.572;7.234;2023-04-01T19:43:42;2.08;;;0.93;;
24086;SDS011;22893;50.572;7.234;2023-04-01T19:46:36;1.20;;;0.57;;
24086;SDS011;22893;50.572;7.234;2023-04-01T19:57:46;2.27;;;0.70;;
24086;SDS011;22893;50.572;7.234;2023-04-01T20:02:52;0.42;;;0.42;;
24086;SDS011;22893;50.572;7.234;2023-04-01T20:19:38;0.93;;;0.47;;
24086;SDS011;22893;50.572;7.234;2023-04-01T20:22:37;1.02;;;0.68;;
24086;SDS011;22893;50.572;7.234;2023-04-01T20:25:24;1.95;;;0.57;;
24086;SDS011;22893;50.572;7.234;2023-04-01T20:31:04;1.15;;;0.60;;
24086;SDS011;22893;50.572;7.234;2023-04-01T20:36:42;0.85;;;0.70;;
24086;SDS011;22893;50.572;7.234;2023-04-01T20:39:27;1.10;;;0.68;;
24086;SDS011;22893;50.572;7.234;2023-04-01T20:42:27;1.20;;;0.70;;
24086;SDS011;22893;50.572;7.234;2023-04-01T20:50:53;1.00;;;0.88;;
24086;SDS011;22893;50.572;7.234;2023-04-01T20:53:28;1.05;;;0.70;;
24086;SDS011;22893;50.572;7.234;2023-04-01T20:56:10;0.93;;;0.80;;
24086;SDS011;22893;50.572;7.234;2023-04-01T21:01:25;4.20;;;0.93;;
24086;SDS011;22893;50.572;7.234;2023-04-01T21:09:40;1.22;;;0.60;;
24086;SDS011;22893;50.572;7.234;2023-04-01T21:20:55;1.02;;;0.68;;
24086;SDS011;22893;50.572;7.234;2023-04-01T21:23:23;0.88;;;0.50;;
24086;SDS011;22893;50.572;7.234;2023-04-01T21:34:43;0.90;;;0.45;;
24086;SDS011;22893;50.572;7.234;2023-04-01T21:51:30;0.85;;;0.57;;
24086;SDS011;22893;50.572;7.234;2023-04-01T21:54:15;0.80;;;0.60;;
24086;SDS011;22893;50.572;7.234;2023-04-01T22:02:35;0.82;;;0.57;;
24086;SDS011;22893;50.572;7.234;2023-04-01T22:05:17;1.85;;;0.62;;
24086;SDS011;22893;50.572;7.234;2023-04-01T22:10:48;0.70;;;0.70;;
24086;SDS011;22893;50.572;7.234;2023-04-01T22:13:33;0.95;;;0.50;;
24086;SDS011;22893;50.572;7.234;2023-04-01T22:19:11;0.90;;;0.50;;
24086;SDS011;22893;50.572;7.234;2023-04-01T22:21:50;0.50;;;0.40;;
24086;SDS011;22893;50.572;7.234;2023-04-01T22:24:30;0.65;;;0.40;;
24086;SDS011;22893;50.572;7.234;2023-04-01T22:27:12;0.78;;;0.50;;
24086;SDS011;22893;50.572;7.234;2023-04-01T22:29:53;0.60;;;0.45;;
24086;SDS011;22893;50.572;7.234;2023-04-01T22:32:34;0.93;;;0.60;;
24086;SDS011;22893;50.572;7.234;2023-04-01T22:43:00;1.80;;;0.80;;
24086;SDS011;22893;50.572;7.234;2023-04-01T22:45:58;1.37;;;0.98;;
24086;SDS011;22893;50.572;7.234;2023-04-01T22:48:26;1.15;;;0.57;;
24086;SDS011;22893;50.572;7.234;2023-04-01T22:51:21;1.52;;;0.70;;
24086;SDS011;22893;50.572;7.234;2023-04-01T22:56:34;1.67;;;0.40;;
24086;SDS011;22893;50.572;7.234;2023-04-01T22:59:22;1.70;;;0.57;;
24086;SDS011;22893;50.572;7.234;2023-04-01T23:04:45;0.62;;;0.40;;
24086;SDS011;22893;50.572;7.234;2023-04-01T23:07:24;1.30;;;0.50;;
24086;SDS011;22893;50.572;7.234;2023-04-01T23:09:47;0.55;;;0.40;;
24086;SDS011;22893;50.572;7.234;2023-04-01T23:12:16;0.90;;;0.50;;
24086;SDS011;22893;50.572;7.234;2023-04-01T23:14:49;0.60;;;0.42;;
24086;SDS011;22893;50.572;7.234;2023-04-01T23:17:22;4.97;;;1.02;;
24086;SDS011;22893;50.572;7.234;2023-04-01T23:25:36;16.02;;;3.77;;
24086;SDS011;22893;50.572;7.234;2023-04-01T23:28:32;11.33;;;3.65;;
24086;SDS011;22893;50.572;7.234;2023-04-01T23:31:01;10.40;;;3.22;;
24086;SDS011;22893;50.572;7.234;2023-04-01T23:33:29;12.13;;;3.83;;
24086;SDS011;22893;50.572;7.234;2023-04-01T23:36:10;12.30;;;3.70;;
24086;SDS011;22893;50.572;7.234;2023-04-01T23:38:33;13.38;;;4.28;;
24086;SDS011;22893;50.572;7.234;2023-04-01T23:41:02;14.25;;;4.42;;
24086;SDS011;22893;50.572;7.234;2023-04-01T23:43:32;12.23;;;4.83;;
24086;SDS011;22893;50.572;7.234;2023-04-01T23:46:02;9.38;;;3.15;;
24086;SDS011;22893;50.572;7.234;2023-04-01T23:48:41;11.43;;;4.80;;
24086;SDS011;22893;50.572;7.234;2023-04-01T23:51:18;11.12;;;3.30;;
24086;SDS011;22893;50.572;7.234;2023-04-01T23:53:55;13.48;;;3.90;;
24086;SDS011;22893;50.572;7.234;2023-04-01T23:57:03;9.60;;;4.40;;
24086;SDS011;22893;50.572;7.234;2023-04-01T23:59:09;9.88;;;3.87;;
